createdAt,value
2018-08-03T00:01:39.217Z,5.50
2018-08-03T00:04:08.296Z,4.73
2018-08-03T00:06:37.395Z,4.10
2018-08-03T00:09:08.625Z,4.83
2018-08-03T00:11:38.458Z,5.23
2018-08-03T00:14:07.665Z,8.20
2018-08-03T00:16:36.759Z,6.03
2018-08-03T00:19:05.818Z,4.20
2018-08-03T00:21:34.873Z,5.27
2018-08-03T00:24:04.352Z,5.40
2018-08-03T00:26:33.813Z,5.73
2018-08-03T00:29:02.873Z,6.27
2018-08-03T00:31:31.952Z,5.50
2018-08-03T00:34:00.969Z,5.27
2018-08-03T00:36:29.968Z,3.70
2018-08-03T00:38:59.166Z,6.03
2018-08-03T00:41:28.367Z,3.73
2018-08-03T00:43:57.469Z,5.60
2018-08-03T00:46:26.569Z,4.43
2018-08-03T00:48:55.768Z,3.93
2018-08-03T00:51:25.992Z,5.90
2018-08-03T00:53:55.077Z,5.70
2018-08-03T00:56:24.190Z,6.83
2018-08-03T00:58:53.186Z,4.17
2018-08-03T01:01:22.289Z,6.10
2018-08-03T01:03:51.239Z,4.70
2018-08-03T01:06:20.291Z,6.83
2018-08-03T01:08:49.315Z,4.00
2018-08-03T01:11:18.385Z,7.47
2018-08-03T01:13:48.096Z,9.63
2018-08-03T01:16:17.105Z,4.60
2018-08-03T01:18:46.193Z,9.50
2018-08-03T01:21:15.287Z,4.90
2018-08-03T01:23:44.488Z,5.00
2018-08-03T01:26:13.483Z,4.67
2018-08-03T01:28:42.583Z,7.50
2018-08-03T01:31:11.681Z,6.20
2018-08-03T01:33:40.783Z,7.97
2018-08-03T01:36:09.725Z,6.40
2018-08-03T01:38:38.777Z,5.83
2018-08-03T01:41:07.980Z,7.57
2018-08-03T01:43:37.128Z,10.13
2018-08-03T01:46:06.175Z,5.97
2018-08-03T01:48:35.172Z,10.63
2018-08-03T01:51:04.221Z,9.23
2018-08-03T01:53:33.274Z,7.87
2018-08-03T01:56:02.293Z,6.27
2018-08-03T01:58:31.267Z,7.30
2018-08-03T02:01:00.273Z,9.13
2018-08-03T02:03:29.472Z,8.13
2018-08-03T02:05:58.584Z,7.47
2018-08-03T02:08:27.763Z,7.63
2018-08-03T02:10:56.969Z,5.83
2018-08-03T02:13:26.168Z,9.03
2018-08-03T02:15:55.372Z,5.27
2018-08-03T02:18:24.493Z,8.73
2018-08-03T02:20:53.623Z,6.53
2018-08-03T02:23:22.769Z,8.10
2018-08-03T02:25:51.846Z,5.97
2018-08-03T02:28:20.511Z,5.60
2018-08-03T02:30:49.388Z,7.50
2018-08-03T02:33:18.556Z,7.83
2018-08-03T02:35:48.158Z,5.73
2018-08-03T02:38:17.263Z,5.70
2018-08-03T02:40:46.365Z,5.47
2018-08-03T02:43:15.421Z,6.57
2018-08-03T02:45:44.413Z,7.20
2018-08-03T02:48:13.472Z,6.57
2018-08-03T02:50:42.559Z,7.90
2018-08-03T02:53:11.544Z,6.17
2018-08-03T02:55:40.673Z,6.33
2018-08-03T02:58:10.057Z,6.27
2018-08-03T03:00:39.043Z,5.63
2018-08-03T03:03:08.975Z,7.20
2018-08-03T03:05:38.081Z,7.63
2018-08-03T03:08:07.025Z,6.60
2018-08-03T03:10:36.065Z,6.33
2018-08-03T03:13:05.268Z,7.13
2018-08-03T03:15:34.366Z,7.03
2018-08-03T03:18:04.247Z,5.97
2018-08-03T03:20:33.596Z,5.63
2018-08-03T03:23:02.738Z,5.90
2018-08-03T03:25:32.584Z,7.87
2018-08-03T03:28:01.706Z,10.47
2018-08-03T03:30:30.728Z,6.87
2018-08-03T03:32:59.751Z,7.50
2018-08-03T03:35:28.907Z,7.87
2018-08-03T03:37:58.008Z,7.03
2018-08-03T03:40:27.121Z,8.30
2018-08-03T03:42:56.300Z,9.47
2018-08-03T03:45:25.472Z,10.23
2018-08-03T03:47:54.501Z,6.87
2018-08-03T03:50:23.498Z,6.23
2018-08-03T03:52:52.494Z,9.27
2018-08-03T03:55:21.593Z,7.13
2018-08-03T03:57:50.781Z,10.40
2018-08-03T04:00:19.896Z,8.53
2018-08-03T04:02:49.098Z,8.43
2018-08-03T04:05:18.085Z,8.00
2018-08-03T04:07:47.195Z,9.23
2018-08-03T04:10:16.291Z,8.67
2018-08-03T04:12:45.421Z,9.97
2018-08-03T04:15:15.420Z,9.03
2018-08-03T04:17:44.423Z,7.73
2018-08-03T04:20:13.462Z,9.03
2018-08-03T04:22:44.022Z,8.40
2018-08-03T04:25:13.344Z,7.40
2018-08-03T04:27:42.366Z,8.63
2018-08-03T04:30:11.546Z,7.63
2018-08-03T04:32:40.610Z,7.57
2018-08-03T04:35:09.277Z,6.97
2018-08-03T04:37:38.331Z,8.27
2018-08-03T04:40:07.423Z,8.57
2018-08-03T04:42:36.566Z,8.23
2018-08-03T04:45:05.831Z,10.23
2018-08-03T04:47:35.034Z,7.50
2018-08-03T04:50:04.293Z,7.27
2018-08-03T04:52:33.437Z,8.67
2018-08-03T04:55:02.440Z,7.33
2018-08-03T04:57:31.674Z,10.10
2018-08-03T05:00:00.941Z,9.63
2018-08-03T05:02:30.065Z,10.13
2018-08-03T05:04:59.144Z,8.43
2018-08-03T05:07:28.459Z,8.83
2018-08-03T05:09:58.149Z,6.77
2018-08-03T05:12:27.356Z,8.57
2018-08-03T05:14:56.353Z,9.87
2018-08-03T05:17:25.368Z,9.17
2018-08-03T05:19:54.449Z,7.23
2018-08-03T05:22:23.619Z,7.47
2018-08-03T05:24:53.159Z,9.97
2018-08-03T05:27:22.154Z,7.40
2018-08-03T05:29:51.119Z,8.60
2018-08-03T05:32:20.266Z,9.83
2018-08-03T05:34:49.209Z,7.10
2018-08-03T05:37:17.899Z,11.27
2018-08-03T05:39:46.840Z,13.77
2018-08-03T05:42:16.217Z,10.63
2018-08-03T05:44:45.335Z,12.07
2018-08-03T05:47:14.543Z,12.63
2018-08-03T05:49:43.515Z,7.27
2018-08-03T05:52:12.199Z,9.90
2018-08-03T05:54:41.216Z,9.50
2018-08-03T05:57:10.203Z,8.97
2018-08-03T05:59:39.232Z,9.30
2018-08-03T06:02:08.729Z,9.10
2018-08-03T06:04:37.813Z,11.67
2018-08-03T06:07:07.037Z,5.80
2018-08-03T06:09:36.066Z,5.00
2018-08-03T06:12:05.409Z,5.90
2018-08-03T06:14:34.346Z,5.60
2018-08-03T06:17:03.497Z,6.33
2018-08-03T06:19:32.687Z,7.50
2018-08-03T06:22:01.679Z,4.70
2018-08-03T06:24:31.757Z,4.47
2018-08-03T06:27:00.837Z,4.53
2018-08-03T06:29:30.493Z,5.57
2018-08-03T06:31:59.848Z,4.60
2018-08-03T06:34:28.878Z,5.30
2018-08-03T06:36:57.873Z,5.40
2018-08-03T06:39:26.957Z,8.00
2018-08-03T06:41:55.958Z,5.73
2018-08-03T06:44:24.959Z,4.57
2018-08-03T06:46:53.956Z,10.37
2018-08-03T06:49:23.056Z,5.60
2018-08-03T06:51:52.169Z,8.73
2018-08-03T06:54:21.352Z,4.27
2018-08-03T06:56:50.442Z,5.67
2018-08-03T06:59:19.686Z,4.33
2018-08-03T07:01:48.653Z,4.33
2018-08-03T07:04:17.735Z,4.90
2018-08-03T07:06:46.846Z,2.75
2018-08-03T07:09:16.350Z,5.53
2018-08-03T07:11:45.299Z,4.80
2018-08-03T07:14:14.273Z,3.22
2018-08-03T07:16:43.350Z,2.72
2018-08-03T07:19:12.446Z,8.25
2018-08-03T07:21:41.545Z,6.60
2018-08-03T07:24:10.549Z,5.15
2018-08-03T07:26:39.913Z,9.80
2018-08-03T07:29:09.048Z,3.87
2018-08-03T07:31:38.205Z,3.17
2018-08-03T07:34:07.964Z,4.65
2018-08-03T07:36:37.062Z,4.05
2018-08-03T07:39:08.050Z,3.00
2018-08-03T07:41:37.206Z,7.05
2018-08-03T07:44:06.321Z,2.83
2018-08-03T07:46:35.805Z,2.80
2018-08-03T07:49:04.940Z,3.80
2018-08-03T07:51:34.005Z,3.35
2018-08-03T07:54:03.116Z,2.35
2018-08-03T07:56:32.332Z,4.65
2018-08-03T07:59:01.513Z,2.45
2018-08-03T08:01:31.325Z,5.08
2018-08-03T08:04:00.331Z,5.10
2018-08-03T08:06:29.432Z,3.27
2018-08-03T08:08:58.503Z,2.70
2018-08-03T08:11:27.492Z,2.47
2018-08-03T08:13:56.524Z,3.45
2018-08-03T08:16:25.620Z,4.85
2018-08-03T08:18:54.724Z,3.33
2018-08-03T08:21:23.714Z,3.83
2018-08-03T08:23:52.752Z,2.33
2018-08-03T08:26:21.710Z,4.62
2018-08-03T08:28:51.442Z,2.62
2018-08-03T08:31:21.492Z,5.40
2018-08-03T08:33:50.937Z,2.42
2018-08-03T08:36:20.512Z,2.42
2018-08-03T08:38:49.495Z,5.08
2018-08-03T08:41:18.671Z,3.77
2018-08-03T08:43:47.450Z,2.30
2018-08-03T08:46:16.551Z,3.65
2018-08-03T08:48:45.545Z,2.75
2018-08-03T08:51:14.649Z,2.98
2018-08-03T08:53:43.756Z,2.75
2018-08-03T08:56:13.363Z,4.20
2018-08-03T08:58:42.463Z,2.10
2018-08-03T09:01:11.467Z,4.17
2018-08-03T09:03:40.549Z,2.55
2018-08-03T09:06:09.647Z,3.58
2018-08-03T09:08:38.649Z,4.33
2018-08-03T09:11:08.615Z,3.47
2018-08-03T09:13:37.770Z,7.40
2018-08-03T09:16:07.216Z,2.83
2018-08-03T09:18:41.281Z,3.45
2018-08-03T09:21:11.462Z,6.22
2018-08-03T09:23:40.408Z,5.05
2018-08-03T09:26:09.507Z,4.20
2018-08-03T09:28:38.706Z,11.33
2018-08-03T09:31:07.884Z,4.37
2018-08-03T09:33:36.910Z,2.67
2018-08-03T09:36:05.992Z,3.95
2018-08-03T09:38:35.103Z,3.22
2018-08-03T09:41:04.203Z,3.33
2018-08-03T09:43:34.119Z,2.85
2018-08-03T09:46:03.320Z,3.60
2018-08-03T09:48:32.435Z,3.67
2018-08-03T09:51:01.769Z,3.67
2018-08-03T09:53:30.826Z,2.67
2018-08-03T09:55:59.950Z,3.20
2018-08-03T09:58:29.024Z,2.37
2018-08-03T10:01:02.252Z,2.90
2018-08-03T10:03:31.301Z,4.40
2018-08-03T10:06:00.411Z,2.70
2018-08-03T10:08:29.458Z,3.95
2018-08-03T10:10:58.512Z,3.20
2018-08-03T10:13:27.459Z,3.22
2018-08-03T10:15:56.612Z,2.42
2018-08-03T10:18:25.602Z,2.03
2018-08-03T10:20:55.320Z,2.77
2018-08-03T10:23:24.313Z,3.02
2018-08-03T10:25:53.437Z,2.70
2018-08-03T10:28:22.618Z,2.98
2018-08-03T10:30:52.227Z,3.02
2018-08-03T10:33:21.330Z,8.37
2018-08-03T10:35:50.484Z,5.87
2018-08-03T10:38:19.552Z,2.52
2018-08-03T10:40:48.548Z,3.80
2018-08-03T10:43:17.626Z,2.10
2018-08-03T10:45:46.626Z,5.05
2018-08-03T10:48:15.720Z,2.17
2018-08-03T10:50:44.715Z,4.65
2018-08-03T10:53:13.814Z,1.80
2018-08-03T10:55:43.018Z,2.17
2018-08-03T10:58:12.244Z,1.87
2018-08-03T11:00:41.313Z,5.83
2018-08-03T11:03:10.524Z,5.70
2018-08-03T11:05:39.608Z,6.22
2018-08-03T11:08:08.619Z,5.15
2018-08-03T11:10:37.748Z,3.08
2018-08-03T11:13:07.039Z,4.15
2018-08-03T11:15:36.120Z,3.77
2018-08-03T11:18:05.229Z,2.72
2018-08-03T11:20:34.313Z,2.67
2018-08-03T11:23:03.516Z,4.40
2018-08-03T11:25:32.824Z,2.50
2018-08-03T11:28:01.919Z,6.17
2018-08-03T11:30:30.956Z,3.33
2018-08-03T11:33:00.017Z,2.47
2018-08-03T11:35:29.645Z,2.62
2018-08-03T11:37:58.725Z,2.58
2018-08-03T11:40:27.731Z,2.27
2018-08-03T11:42:56.719Z,2.42
2018-08-03T11:45:25.921Z,3.63
2018-08-03T11:47:55.020Z,2.30
2018-08-03T11:50:24.067Z,3.47
2018-08-03T11:52:54.034Z,2.20
2018-08-03T11:55:23.164Z,2.33
2018-08-03T11:57:52.746Z,2.27
2018-08-03T12:00:21.996Z,3.43
2018-08-03T12:02:51.034Z,3.45
2018-08-03T12:05:20.154Z,2.12
2018-08-03T12:07:49.379Z,4.22
2018-08-03T12:10:18.480Z,4.92
2018-08-03T12:12:47.549Z,3.08
2018-08-03T12:15:16.952Z,2.90
2018-08-03T12:17:46.115Z,2.30
2018-08-03T12:20:15.272Z,2.58
2018-08-03T12:22:45.806Z,4.83
2018-08-03T12:25:15.527Z,3.37
2018-08-03T12:27:44.765Z,2.62
2018-08-03T12:30:13.803Z,2.72
2018-08-03T12:32:43.326Z,2.30
2018-08-03T12:35:12.717Z,3.12
2018-08-03T12:37:42.057Z,2.60
2018-08-03T12:40:12.013Z,3.22
2018-08-03T12:42:41.348Z,2.90
2018-08-03T12:45:10.710Z,2.75
2018-08-03T12:47:40.581Z,5.12
2018-08-03T12:50:09.869Z,2.80
2018-08-03T12:52:38.905Z,4.70
2018-08-03T12:55:08.070Z,3.02
2018-08-03T12:57:37.168Z,2.80
2018-08-03T13:00:07.444Z,2.72
2018-08-03T13:02:37.185Z,3.17
2018-08-03T13:05:06.649Z,2.92
2018-08-03T13:07:35.971Z,3.60
2018-08-03T13:10:05.026Z,4.47
2018-08-03T13:12:34.220Z,4.30
2018-08-03T13:15:03.295Z,2.85
2018-08-03T13:17:32.432Z,2.42
2018-08-03T13:20:01.414Z,4.35
2018-08-03T13:22:30.491Z,2.62
2018-08-03T13:24:59.384Z,3.30
2018-08-03T13:27:28.375Z,3.23
2018-08-03T13:29:57.434Z,3.20
2018-08-03T13:32:26.603Z,4.95
2018-08-03T13:34:55.703Z,3.42
2018-08-03T13:37:24.715Z,2.58
2018-08-03T13:39:54.009Z,2.72
2018-08-03T13:42:23.223Z,3.13
2018-08-03T13:44:52.418Z,2.67
2018-08-03T13:47:21.465Z,6.20
2018-08-03T13:49:50.811Z,4.30
2018-08-03T13:52:19.809Z,4.90
2018-08-03T13:54:49.011Z,3.15
2018-08-03T13:57:18.331Z,6.33
2018-08-03T13:59:47.406Z,2.80
2018-08-03T14:02:22.640Z,2.37
2018-08-03T14:04:52.023Z,8.13
2018-08-03T14:07:21.055Z,2.62
2018-08-03T14:09:50.039Z,4.40
2018-08-03T14:12:19.242Z,4.27
2018-08-03T14:14:48.378Z,4.92
2018-08-03T14:17:17.454Z,4.12
2018-08-03T14:19:47.076Z,2.75
2018-08-03T14:22:16.216Z,2.62
2018-08-03T14:24:45.642Z,5.45
2018-08-03T14:27:16.002Z,4.12
2018-08-03T14:29:45.107Z,3.10
2018-08-03T14:32:14.504Z,4.35
2018-08-03T14:34:43.809Z,5.60
2018-08-03T14:37:13.057Z,5.62
2018-08-03T14:39:42.577Z,6.25
2018-08-03T14:42:11.637Z,3.85
2018-08-03T14:44:40.602Z,3.52
2018-08-03T14:47:09.719Z,5.05
2018-08-03T14:49:38.716Z,2.42
2018-08-03T14:52:07.828Z,4.42
2018-08-03T14:54:36.907Z,4.30
2018-08-03T14:57:06.115Z,3.22
2018-08-03T14:59:35.538Z,3.45
2018-08-03T15:02:04.719Z,7.30
2018-08-03T15:04:33.923Z,9.55
2018-08-03T15:07:03.148Z,5.85
2018-08-03T15:09:32.147Z,3.72
2018-08-03T15:12:01.334Z,7.53
2018-08-03T15:14:30.523Z,3.67
2018-08-03T15:16:59.622Z,3.37
2018-08-03T15:19:28.621Z,2.67
2018-08-03T15:21:57.720Z,2.90
2018-08-03T15:24:26.924Z,3.90
2018-08-03T15:26:56.023Z,3.72
2018-08-03T15:29:25.280Z,4.53
2018-08-03T15:31:54.375Z,2.90
2018-08-03T15:34:23.418Z,3.67
2018-08-03T15:36:52.499Z,3.40
2018-08-03T15:39:22.131Z,5.27
2018-08-03T15:41:51.240Z,5.35
2018-08-03T15:44:20.252Z,5.22
2018-08-03T15:46:49.265Z,3.40
2018-08-03T15:49:18.325Z,4.35
2018-08-03T15:51:47.423Z,3.58
2018-08-03T15:54:16.480Z,7.30
2018-08-03T15:56:45.518Z,3.00
2018-08-03T15:59:14.555Z,2.80
2018-08-03T16:01:43.816Z,3.90
2018-08-03T16:04:13.027Z,3.87
2018-08-03T16:06:42.193Z,3.17
2018-08-03T16:09:11.768Z,7.53
2018-08-03T16:11:41.325Z,6.90
2018-08-03T16:14:10.951Z,2.87
2018-08-03T16:16:39.965Z,5.20
2018-08-03T16:19:09.073Z,4.17
2018-08-03T16:21:38.145Z,4.00
2018-08-03T16:24:07.195Z,4.27
2018-08-03T16:26:36.243Z,3.30
2018-08-03T16:29:05.548Z,3.10
2018-08-03T16:31:34.642Z,2.67
2018-08-03T16:34:03.646Z,6.30
2018-08-03T16:36:32.746Z,3.87
2018-08-03T16:39:02.110Z,2.97
2018-08-03T16:41:31.151Z,4.07
2018-08-03T16:44:01.120Z,5.23
2018-08-03T16:46:31.104Z,4.77
2018-08-03T16:49:00.288Z,3.20
2018-08-03T16:51:29.488Z,3.97
2018-08-03T16:53:58.793Z,3.10
2018-08-03T16:56:27.865Z,4.47
2018-08-03T16:58:56.992Z,6.33
2018-08-03T17:01:26.095Z,3.77
2018-08-03T17:03:55.509Z,5.17
2018-08-03T17:06:25.211Z,3.70
2018-08-03T17:08:54.525Z,3.67
2018-08-03T17:11:23.611Z,4.20
2018-08-03T17:13:52.918Z,6.80
2018-08-03T17:16:22.107Z,4.13
2018-08-03T17:18:51.089Z,3.23
2018-08-03T17:21:19.843Z,3.20
2018-08-03T17:23:48.808Z,6.90
2018-08-03T17:26:18.004Z,3.13
2018-08-03T17:28:47.230Z,3.23
2018-08-03T17:31:16.324Z,5.27
2018-08-03T17:33:45.401Z,3.80
2018-08-03T17:36:14.447Z,4.23
2018-08-03T17:38:43.502Z,3.60
2018-08-03T17:41:12.667Z,8.53
2018-08-03T17:43:42.725Z,5.63
2018-08-03T17:46:11.861Z,3.77
2018-08-03T17:48:41.023Z,3.30
2018-08-03T17:51:10.141Z,4.20
2018-08-03T17:53:39.225Z,3.70
2018-08-03T17:56:08.393Z,5.00
2018-08-03T17:58:38.037Z,4.10
2018-08-03T18:01:07.344Z,3.57
2018-08-03T18:03:36.400Z,4.37
2018-08-03T18:06:05.684Z,4.67
2018-08-03T18:08:35.479Z,3.60
2018-08-03T18:11:05.067Z,2.90
2018-08-03T18:13:34.062Z,4.00
2018-08-03T18:16:03.166Z,6.17
2018-08-03T18:18:32.153Z,2.77
2018-08-03T18:21:01.361Z,6.03
2018-08-03T18:23:30.331Z,4.07
2018-08-03T18:25:59.340Z,4.03
2018-08-03T18:28:28.458Z,3.37
2018-08-03T18:30:58.064Z,3.60
2018-08-03T18:33:27.267Z,4.23
2018-08-03T18:35:56.574Z,7.03
2018-08-03T18:38:25.774Z,3.97
2018-08-03T18:40:54.870Z,5.03
2018-08-03T18:43:23.969Z,3.70
2018-08-03T18:45:53.687Z,4.20
2018-08-03T18:48:22.754Z,3.80
2018-08-03T18:50:52.087Z,3.97
2018-08-03T18:53:21.220Z,3.83
2018-08-03T18:55:50.916Z,3.77
2018-08-03T18:58:20.924Z,4.23
2018-08-03T19:00:50.017Z,4.27
2018-08-03T19:03:19.376Z,4.47
2018-08-03T19:05:48.423Z,5.67
2018-08-03T19:08:17.449Z,5.53
2018-08-03T19:10:46.621Z,5.50
2018-08-03T19:13:16.249Z,4.10
2018-08-03T19:15:45.280Z,6.60
2018-08-03T19:18:14.431Z,7.17
2018-08-03T19:20:43.639Z,4.63
2018-08-03T19:23:12.708Z,3.93
2018-08-03T19:25:41.735Z,6.07
2018-08-03T19:28:10.720Z,4.30
2018-08-03T19:30:39.739Z,5.27
2018-08-03T19:33:09.039Z,4.30
2018-08-03T19:35:38.123Z,4.10
2018-08-03T19:38:07.225Z,6.20
2018-08-03T19:40:36.322Z,4.57
2018-08-03T19:43:05.642Z,8.90
2018-08-03T19:45:34.712Z,5.37
2018-08-03T19:48:05.054Z,5.37
2018-08-03T19:50:34.108Z,5.30
2018-08-03T19:53:03.355Z,5.23
2018-08-03T19:55:32.660Z,7.97
2018-08-03T19:58:01.863Z,6.13
2018-08-03T20:00:30.975Z,5.80
2018-08-03T20:03:00.057Z,4.93
2018-08-03T20:05:29.160Z,6.23
2018-08-03T20:07:58.917Z,4.30
2018-08-03T20:10:28.064Z,6.87
2018-08-03T20:12:58.074Z,4.87
2018-08-03T20:15:27.219Z,5.00
2018-08-03T20:17:56.400Z,4.87
2018-08-03T20:20:25.596Z,6.30
2018-08-03T20:22:54.702Z,5.00
2018-08-03T20:25:23.806Z,6.87
2018-08-03T20:27:52.991Z,5.43
2018-08-03T20:30:22.985Z,4.60
2018-08-03T20:32:52.116Z,4.47
2018-08-03T20:35:21.316Z,5.97
2018-08-03T20:37:50.528Z,8.00
2018-08-03T20:40:19.659Z,4.30
2018-08-03T20:42:48.821Z,4.37
2018-08-03T20:45:18.159Z,5.00
2018-08-03T20:47:47.215Z,5.87
2018-08-03T20:50:16.369Z,4.23
2018-08-03T20:52:45.547Z,5.30
2018-08-03T20:55:14.672Z,4.60
2018-08-03T20:57:43.836Z,5.40
2018-08-03T21:00:13.537Z,4.70
2018-08-03T21:02:42.639Z,4.87
2018-08-03T21:05:11.739Z,6.23
2018-08-03T21:07:40.867Z,4.10
2018-08-03T21:10:10.038Z,4.10
2018-08-03T21:12:39.341Z,3.97
2018-08-03T21:15:09.164Z,5.40
2018-08-03T21:17:38.360Z,5.07
2018-08-03T21:20:08.695Z,4.80
2018-08-03T21:22:38.032Z,4.57
2018-08-03T21:25:07.791Z,5.13
2018-08-03T21:27:37.034Z,8.47
2018-08-03T21:30:08.077Z,5.23
2018-08-03T21:32:37.098Z,7.87
2018-08-03T21:35:06.470Z,4.23
2018-08-03T21:37:35.976Z,6.23
2018-08-03T21:40:05.466Z,5.07
2018-08-03T21:42:35.086Z,6.27
2018-08-03T21:45:04.679Z,6.80
2018-08-03T21:47:33.674Z,4.90
2018-08-03T21:50:02.690Z,6.50
2018-08-03T21:52:32.920Z,5.93
2018-08-03T21:55:02.017Z,7.43
2018-08-03T21:57:31.040Z,5.60
2018-08-03T22:00:00.080Z,5.20
2018-08-03T22:02:29.112Z,6.07
2018-08-03T22:04:58.355Z,7.13
2018-08-03T22:07:27.407Z,6.70
2018-08-03T22:09:56.509Z,5.80
2018-08-03T22:12:25.625Z,5.13
2018-08-03T22:14:54.706Z,6.77
2018-08-03T22:17:24.010Z,5.77
2018-08-03T22:19:53.110Z,6.43
2018-08-03T22:22:22.320Z,5.37
2018-08-03T22:24:51.613Z,5.00
2018-08-03T22:27:20.792Z,5.33
2018-08-03T22:29:49.782Z,4.53
2018-08-03T22:32:18.838Z,5.87
2018-08-03T22:34:48.013Z,5.80
2018-08-03T22:37:17.023Z,7.73
2018-08-03T22:39:46.316Z,7.63
2018-08-03T22:42:15.863Z,5.73
2018-08-03T22:44:45.029Z,7.70
2018-08-03T22:47:14.740Z,5.67
2018-08-03T22:49:43.951Z,5.67
2018-08-03T22:52:14.471Z,7.63
2018-08-03T22:54:43.569Z,5.57
2018-08-03T22:57:13.487Z,6.67
2018-08-03T22:59:44.222Z,6.20
2018-08-03T23:02:13.425Z,5.70
2018-08-03T23:04:42.534Z,5.57
2018-08-03T23:07:11.725Z,7.50
2018-08-03T23:09:40.822Z,5.87
2018-08-03T23:12:10.479Z,5.83
2018-08-03T23:14:39.638Z,7.53
2018-08-03T23:17:08.738Z,8.57
2018-08-03T23:19:38.045Z,5.87
2018-08-03T23:22:07.140Z,5.20
2018-08-03T23:24:36.177Z,5.67
2018-08-03T23:27:05.292Z,5.50
2018-08-03T23:29:34.543Z,6.17
2018-08-03T23:32:03.600Z,7.30
2018-08-03T23:34:32.751Z,5.43
2018-08-03T23:37:01.732Z,6.23
2018-08-03T23:39:30.776Z,6.17
2018-08-03T23:41:59.748Z,7.03
2018-08-03T23:44:28.968Z,6.20
2018-08-03T23:46:58.032Z,6.63
2018-08-03T23:49:27.146Z,6.43
2018-08-03T23:51:56.337Z,6.33
2018-08-03T23:54:25.438Z,6.00
2018-08-03T23:56:55.453Z,10.13
2018-08-03T23:59:24.551Z,8.03
